createdAt,value
2019-03-18T00:01:06.536Z,81.70
2019-03-18T00:03:35.781Z,81.70
2019-03-18T00:06:04.935Z,81.70
2019-03-18T00:08:34.166Z,81.70
2019-03-18T00:11:03.352Z,81.80
2019-03-18T00:13:32.474Z,81.90
2019-03-18T00:16:01.457Z,81.90
2019-03-18T00:18:30.525Z,82.00
2019-03-18T00:20:59.502Z,82.30
2019-03-18T00:23:28.618Z,82.20
2019-03-18T00:25:57.592Z,82.20
2019-03-18T00:28:26.618Z,82.30
2019-03-18T00:30:55.652Z,82.50
2019-03-18T00:33:24.751Z,82.50
2019-03-18T00:35:53.783Z,82.40
2019-03-18T00:38:22.751Z,82.50
2019-03-18T00:40:51.732Z,82.50
2019-03-18T00:46:15.585Z,82.40
2019-03-18T00:48:44.664Z,82.50
2019-03-18T00:51:13.860Z,82.60
2019-03-18T00:53:42.962Z,82.80
2019-03-18T00:56:12.024Z,83.00
2019-03-18T00:58:41.072Z,83.00
2019-03-18T01:01:10.564Z,83.60
2019-03-18T01:03:39.567Z,83.00
2019-03-18T01:06:08.590Z,83.00
2019-03-18T01:08:37.637Z,83.00
2019-03-18T01:11:07.071Z,83.10
2019-03-18T01:13:36.040Z,83.10
2019-03-18T01:16:05.124Z,83.00
2019-03-18T01:18:34.022Z,83.00
2019-03-18T01:21:03.012Z,82.90
2019-03-18T01:23:31.995Z,83.00
2019-03-18T01:26:00.980Z,82.90
2019-03-18T01:28:30.039Z,82.90
2019-03-18T01:30:59.116Z,83.00
2019-03-18T01:33:28.083Z,82.80
2019-03-18T01:35:57.156Z,83.10
2019-03-18T01:38:26.242Z,82.90
2019-03-18T01:40:55.264Z,83.20
2019-03-18T01:43:24.370Z,82.90
2019-03-18T01:45:53.436Z,82.90
2019-03-18T01:48:22.546Z,82.70
2019-03-18T01:50:51.517Z,82.60
2019-03-18T01:53:20.485Z,82.70
2019-03-18T01:55:49.447Z,82.50
2019-03-18T01:58:18.357Z,82.60
2019-03-18T02:00:47.352Z,82.90
2019-03-18T02:03:16.323Z,82.80
2019-03-18T02:05:45.297Z,82.90
2019-03-18T02:08:14.281Z,82.80
2019-03-18T02:10:43.362Z,83.10
2019-03-18T02:13:12.398Z,83.20
2019-03-18T02:15:52.819Z,84.30
2019-03-18T02:18:12.306Z,83.40
2019-03-18T02:20:41.352Z,83.40
2019-03-18T02:23:10.367Z,83.20
2019-03-18T02:25:39.335Z,83.20
2019-03-18T02:28:08.463Z,83.10
2019-03-18T02:30:37.526Z,83.00
2019-03-18T02:33:06.561Z,83.10
2019-03-18T02:35:35.539Z,82.80
2019-03-18T02:38:04.597Z,82.90
2019-03-18T02:40:33.560Z,82.70
2019-03-18T02:43:02.596Z,82.60
2019-03-18T02:45:31.650Z,82.40
2019-03-18T02:48:00.632Z,82.30
2019-03-18T02:50:29.691Z,82.50
2019-03-18T02:52:58.682Z,82.20
2019-03-18T02:55:27.649Z,82.00
2019-03-18T02:57:56.630Z,82.00
2019-03-18T03:00:25.750Z,82.70
2019-03-18T03:02:54.805Z,81.90
2019-03-18T03:05:23.881Z,81.80
2019-03-18T03:07:52.934Z,81.80
2019-03-18T03:10:22.139Z,81.80
2019-03-18T03:12:51.145Z,81.60
2019-03-18T03:15:20.273Z,81.60
2019-03-18T03:17:49.309Z,81.50
2019-03-18T03:20:18.273Z,81.80
2019-03-18T03:22:47.210Z,81.50
2019-03-18T03:25:16.303Z,81.50
2019-03-18T03:27:45.265Z,81.60
2019-03-18T03:30:14.696Z,81.70
2019-03-18T03:32:43.720Z,81.90
2019-03-18T03:35:12.856Z,82.00
2019-03-18T03:37:41.982Z,81.90
2019-03-18T03:40:11.159Z,81.80
2019-03-18T03:42:40.371Z,81.80
2019-03-18T03:45:09.620Z,81.80
2019-03-18T03:47:38.737Z,81.70
2019-03-18T03:50:07.892Z,81.60
2019-03-18T03:52:36.876Z,82.40
2019-03-18T03:55:06.179Z,81.60
2019-03-18T03:57:35.197Z,81.50
2019-03-18T04:00:05.335Z,81.30
2019-03-18T04:02:34.409Z,81.40
2019-03-18T04:05:03.434Z,81.40
2019-03-18T04:07:32.448Z,81.50
2019-03-18T04:10:01.470Z,81.20
2019-03-18T04:12:30.552Z,81.20
2019-03-18T04:14:59.533Z,81.40
2019-03-18T04:17:28.583Z,81.20
2019-03-18T04:19:57.722Z,81.10
2019-03-18T04:22:26.771Z,81.00
2019-03-18T04:24:55.826Z,81.20
2019-03-18T04:27:25.109Z,81.10
2019-03-18T04:29:54.405Z,80.90
2019-03-18T04:32:23.417Z,80.80
2019-03-18T04:34:52.367Z,80.70
2019-03-18T04:37:21.402Z,80.60
2019-03-18T04:39:50.341Z,80.60
2019-03-18T04:42:19.328Z,80.50
2019-03-18T04:44:48.380Z,80.30
2019-03-18T04:47:17.366Z,80.30
2019-03-18T04:49:46.413Z,80.00
2019-03-18T04:52:15.510Z,80.30
2019-03-18T04:54:44.560Z,80.10
2019-03-18T04:57:13.592Z,80.20
2019-03-18T04:59:42.626Z,80.10
2019-03-18T05:02:11.663Z,80.10
2019-03-18T05:04:40.609Z,80.00
2019-03-18T05:07:09.584Z,80.10
2019-03-18T05:09:38.621Z,79.90
2019-03-18T05:12:07.606Z,80.00
2019-03-18T05:14:36.698Z,80.10
2019-03-18T05:17:05.799Z,80.10
2019-03-18T05:19:34.839Z,80.00
2019-03-18T05:22:03.914Z,79.80
2019-03-18T05:24:32.957Z,80.10
2019-03-18T05:27:01.898Z,80.70
2019-03-18T05:29:30.944Z,80.90
2019-03-18T05:31:59.881Z,81.00
2019-03-18T05:34:28.832Z,80.90
2019-03-18T05:36:57.815Z,81.30
2019-03-18T05:39:26.927Z,81.00
2019-03-18T05:41:55.973Z,81.80
2019-03-18T05:44:24.996Z,80.80
2019-03-18T05:46:54.034Z,81.00
2019-03-18T05:49:23.090Z,80.70
2019-03-18T05:51:52.083Z,80.60
2019-03-18T05:54:21.103Z,80.70
2019-03-18T05:56:50.154Z,80.70
2019-03-18T05:59:19.280Z,80.80
2019-03-18T06:01:48.362Z,80.90
2019-03-18T06:04:17.421Z,81.10
2019-03-18T06:06:46.486Z,81.20
2019-03-18T06:09:15.510Z,81.30
2019-03-18T06:11:44.556Z,81.50
2019-03-18T06:14:13.620Z,81.50
2019-03-18T06:16:42.540Z,82.40
2019-03-18T06:19:11.696Z,81.60
2019-03-18T06:21:40.782Z,81.90
2019-03-18T06:24:09.834Z,81.90
2019-03-18T06:26:38.855Z,82.20
2019-03-18T06:29:08.022Z,82.50
2019-03-18T06:31:37.436Z,82.50
2019-03-18T06:34:06.538Z,82.30
2019-03-18T06:36:35.607Z,82.30
2019-03-18T06:39:06.523Z,82.50
2019-03-18T06:41:35.785Z,82.40
2019-03-18T06:44:04.843Z,82.20
2019-03-18T06:46:33.931Z,82.30
2019-03-18T06:49:03.040Z,82.10
2019-03-18T06:51:32.137Z,82.20
2019-03-18T06:54:01.366Z,82.20
2019-03-18T06:56:30.362Z,82.00
2019-03-18T06:58:59.588Z,82.20
2019-03-18T07:01:28.731Z,82.20
2019-03-18T07:03:57.811Z,82.20
2019-03-18T07:06:26.792Z,82.30
2019-03-18T07:08:55.885Z,82.40
2019-03-18T07:11:24.967Z,82.50
2019-03-18T07:13:54.036Z,82.70
2019-03-18T07:16:23.127Z,82.70
2019-03-18T07:18:52.228Z,82.70
2019-03-18T07:21:21.267Z,83.70
2019-03-18T07:23:50.252Z,83.00
2019-03-18T07:26:19.340Z,83.70
2019-03-18T07:28:48.508Z,83.00
2019-03-18T07:31:17.638Z,83.90
2019-03-18T07:33:46.726Z,82.90
2019-03-18T07:36:15.833Z,83.00
2019-03-18T07:38:44.871Z,82.70
2019-03-18T07:41:13.975Z,82.90
2019-03-18T07:43:43.188Z,82.80
2019-03-18T07:46:12.252Z,83.10
2019-03-18T07:48:41.354Z,82.70
2019-03-18T07:51:10.489Z,82.50
2019-03-18T07:53:39.650Z,82.30
2019-03-18T07:56:08.783Z,83.20
2019-03-18T07:58:37.855Z,81.40
2019-03-18T08:01:06.946Z,80.40
2019-03-18T08:03:36.750Z,79.40
2019-03-18T08:06:06.020Z,79.00
2019-03-18T08:08:35.118Z,79.00
2019-03-18T08:11:04.296Z,78.10
2019-03-18T08:13:33.438Z,76.30
2019-03-18T08:16:02.504Z,76.50
2019-03-18T08:18:42.754Z,75.10
2019-03-18T08:21:02.267Z,75.70
2019-03-18T08:23:31.371Z,75.30
2019-03-18T08:26:00.587Z,75.20
2019-03-18T08:28:29.765Z,75.30
2019-03-18T08:30:58.766Z,74.90
2019-03-18T08:33:27.747Z,75.00
2019-03-18T08:35:56.818Z,76.10
2019-03-18T08:38:25.780Z,76.30
2019-03-18T08:40:54.818Z,75.60
2019-03-18T08:43:23.893Z,76.20
2019-03-18T08:45:52.927Z,76.20
2019-03-18T08:48:22.055Z,75.80
2019-03-18T08:50:51.115Z,76.30
2019-03-18T08:53:20.198Z,76.90
2019-03-18T08:55:49.272Z,76.20
2019-03-18T08:58:18.327Z,76.20
2019-03-18T09:00:47.470Z,75.80
2019-03-18T09:03:16.464Z,76.10
2019-03-18T09:05:45.550Z,76.10
2019-03-18T09:08:14.532Z,75.80
2019-03-18T09:10:43.587Z,74.90
2019-03-18T09:13:12.631Z,74.70
2019-03-18T09:15:41.915Z,74.40
2019-03-18T09:18:10.956Z,74.00
2019-03-18T09:20:40.150Z,74.00
2019-03-18T09:23:09.210Z,73.90
2019-03-18T09:25:38.384Z,74.50
2019-03-18T09:28:07.418Z,74.10
2019-03-18T09:30:36.490Z,72.40
2019-03-18T09:33:05.614Z,73.00
2019-03-18T09:35:34.725Z,72.20
2019-03-18T09:38:03.872Z,71.70
2019-03-18T09:40:33.080Z,69.80
2019-03-18T09:43:02.251Z,69.50
2019-03-18T09:45:31.361Z,70.50
2019-03-18T09:48:00.539Z,69.90
2019-03-18T09:50:29.620Z,69.30
2019-03-18T09:52:58.730Z,69.10
2019-03-18T09:55:27.724Z,69.50
2019-03-18T09:57:56.778Z,68.30
2019-03-18T10:00:25.861Z,68.90
2019-03-18T10:02:54.948Z,68.20
2019-03-18T10:05:24.142Z,68.70
2019-03-18T10:07:53.123Z,68.60
2019-03-18T10:10:22.194Z,67.90
2019-03-18T10:12:51.159Z,66.80
2019-03-18T10:15:20.205Z,66.50
2019-03-18T10:17:49.304Z,67.50
2019-03-18T10:20:18.440Z,66.50
2019-03-18T10:22:47.557Z,66.90
2019-03-18T10:25:16.687Z,66.80
2019-03-18T10:27:45.828Z,67.60
2019-03-18T10:30:14.999Z,68.10
2019-03-18T10:32:44.212Z,68.40
2019-03-18T10:35:13.589Z,69.60
2019-03-18T10:37:42.800Z,70.40
2019-03-18T10:40:12.009Z,68.70
2019-03-18T10:42:41.063Z,67.50
2019-03-18T10:45:10.395Z,67.70
2019-03-18T10:47:39.445Z,68.60
2019-03-18T10:50:09.061Z,68.60
2019-03-18T10:52:38.120Z,69.10
2019-03-18T10:55:08.273Z,68.90
2019-03-18T10:57:37.441Z,68.00
2019-03-18T11:00:07.028Z,67.70
2019-03-18T11:02:36.023Z,68.30
2019-03-18T11:05:08.021Z,67.10
2019-03-18T11:07:36.324Z,66.00
2019-03-18T11:10:06.188Z,65.80
2019-03-18T11:12:35.277Z,66.20
2019-03-18T11:15:04.886Z,66.10
2019-03-18T11:17:34.018Z,65.50
2019-03-18T11:20:03.191Z,65.60
2019-03-18T11:22:32.327Z,66.60
2019-03-18T11:25:01.441Z,66.50
2019-03-18T11:27:30.613Z,66.20
2019-03-18T11:29:59.787Z,65.40
2019-03-18T11:32:29.015Z,65.40
2019-03-18T11:34:58.009Z,65.40
2019-03-18T11:37:27.155Z,66.00
2019-03-18T11:39:56.308Z,66.80
2019-03-18T11:42:25.366Z,67.20
2019-03-18T11:44:54.498Z,67.10
2019-03-18T11:47:23.615Z,67.50
2019-03-18T11:49:52.619Z,65.00
2019-03-18T11:52:21.733Z,64.10
2019-03-18T11:54:50.857Z,65.40
2019-03-18T11:57:20.061Z,66.70
2019-03-18T11:59:49.174Z,67.00
2019-03-18T12:02:27.191Z,66.90
2019-03-18T12:04:48.965Z,66.80
2019-03-18T12:07:18.078Z,67.60
2019-03-18T12:09:47.234Z,66.20
2019-03-18T12:12:16.343Z,65.60
2019-03-18T12:14:45.403Z,64.80
2019-03-18T12:17:14.493Z,63.10
2019-03-18T12:19:43.655Z,61.10
2019-03-18T12:22:12.719Z,59.50
2019-03-18T12:24:41.721Z,59.60
2019-03-18T12:27:30.003Z,59.60
2019-03-18T12:29:59.209Z,60.80
2019-03-18T12:32:28.497Z,59.80
2019-03-18T12:34:57.580Z,58.90
2019-03-18T12:37:26.686Z,57.80
2019-03-18T12:39:55.783Z,59.00
2019-03-18T12:42:24.859Z,68.50
2019-03-18T12:44:53.942Z,75.10
2019-03-18T12:47:23.032Z,77.40
2019-03-18T12:49:52.093Z,78.10
2019-03-18T12:52:21.187Z,78.80
2019-03-18T12:54:50.256Z,79.40
2019-03-18T12:57:19.407Z,80.80
2019-03-18T12:59:48.618Z,79.50
2019-03-18T13:02:17.692Z,79.30
2019-03-18T13:04:46.908Z,78.40
2019-03-18T13:07:15.936Z,78.60
2019-03-18T13:09:45.067Z,77.90
2019-03-18T13:12:14.139Z,77.60
2019-03-18T13:14:43.221Z,75.10
2019-03-18T13:17:12.319Z,73.00
2019-03-18T13:19:42.621Z,73.40
2019-03-18T13:22:11.784Z,72.20
2019-03-18T13:24:40.961Z,71.90
2019-03-18T13:27:10.094Z,70.60
2019-03-18T13:29:39.304Z,69.90
2019-03-18T13:32:08.529Z,68.40
2019-03-18T13:34:37.811Z,64.70
2019-03-18T13:37:07.023Z,65.10
2019-03-18T13:39:37.059Z,64.80
2019-03-18T13:42:06.242Z,66.10
2019-03-18T13:44:35.463Z,63.90
2019-03-18T13:47:04.734Z,62.90
2019-03-18T13:49:33.968Z,62.60
2019-03-18T13:52:03.336Z,62.60
2019-03-18T13:54:32.618Z,62.90
2019-03-18T13:57:01.740Z,62.60
2019-03-18T13:59:30.827Z,62.20
2019-03-18T14:01:59.969Z,62.10
2019-03-18T14:04:29.119Z,62.90
2019-03-18T14:06:58.351Z,64.60
2019-03-18T14:09:27.482Z,64.30
2019-03-18T14:11:56.731Z,64.30
2019-03-18T14:14:25.857Z,63.80
2019-03-18T14:16:55.022Z,63.80
2019-03-18T14:19:24.233Z,63.90
2019-03-18T14:21:53.464Z,64.00
2019-03-18T14:24:22.573Z,59.90
2019-03-18T14:26:51.798Z,58.50
2019-03-18T14:29:20.966Z,58.70
2019-03-18T14:31:50.170Z,59.40
2019-03-18T14:34:19.254Z,59.40
2019-03-18T14:36:48.452Z,59.80
2019-03-18T14:39:17.662Z,60.30
2019-03-18T14:41:46.841Z,62.00
2019-03-18T14:44:15.970Z,62.90
2019-03-18T14:46:45.117Z,63.90
2019-03-18T14:49:14.290Z,65.90
2019-03-18T14:51:46.063Z,66.70
2019-03-18T14:54:14.175Z,67.20
2019-03-18T14:56:43.430Z,67.10
2019-03-18T14:59:12.562Z,69.10
2019-03-18T15:01:41.758Z,73.00
2019-03-18T15:04:10.951Z,74.60
2019-03-18T15:06:40.115Z,75.10
2019-03-18T15:09:09.566Z,75.50
2019-03-18T15:11:38.725Z,75.80
2019-03-18T15:14:08.280Z,72.90
2019-03-18T15:16:37.392Z,73.30
2019-03-18T15:19:06.578Z,71.60
2019-03-18T15:21:35.851Z,72.10
2019-03-18T15:24:16.470Z,72.50
2019-03-18T15:26:35.976Z,72.30
2019-03-18T15:29:05.086Z,71.70
2019-03-18T15:31:34.175Z,72.10
2019-03-18T15:34:03.636Z,72.20
2019-03-18T15:36:32.838Z,72.80
2019-03-18T15:39:02.066Z,73.50
2019-03-18T15:41:31.214Z,74.30
2019-03-18T15:44:00.222Z,74.30
2019-03-18T15:46:29.433Z,74.40
2019-03-18T15:48:58.438Z,74.70
2019-03-18T15:51:27.637Z,75.30
2019-03-18T15:53:56.805Z,76.40
2019-03-18T15:56:25.998Z,76.00
2019-03-18T15:58:55.327Z,76.10
2019-03-18T16:01:24.387Z,75.50
2019-03-18T16:03:53.467Z,74.70
2019-03-18T16:06:22.656Z,73.10
2019-03-18T16:08:51.800Z,71.90
2019-03-18T16:11:20.877Z,72.70
2019-03-18T16:13:50.003Z,73.10
2019-03-18T16:16:19.164Z,73.90
2019-03-18T16:18:48.262Z,74.50
2019-03-18T16:21:17.485Z,75.40
2019-03-18T16:23:46.611Z,75.60
2019-03-18T16:26:15.683Z,75.80
2019-03-18T16:28:44.875Z,76.20
2019-03-18T16:31:13.916Z,76.50
2019-03-18T16:33:43.136Z,76.40
2019-03-18T16:36:12.403Z,78.10
2019-03-18T16:38:41.382Z,81.20
2019-03-18T16:41:12.849Z,82.10
2019-03-18T16:43:42.011Z,80.50
2019-03-18T16:46:11.075Z,80.40
2019-03-18T16:48:40.109Z,80.70
2019-03-18T16:51:09.182Z,81.60
2019-03-18T16:53:38.281Z,81.40
2019-03-18T16:56:07.432Z,80.90
2019-03-18T16:58:36.512Z,80.60
2019-03-18T17:01:05.582Z,80.70
2019-03-18T17:03:34.792Z,81.30
2019-03-18T17:06:03.908Z,81.70
2019-03-18T17:08:33.147Z,81.20
2019-03-18T17:11:02.161Z,81.60
2019-03-18T17:13:31.189Z,81.80
2019-03-18T17:16:00.296Z,82.00
2019-03-18T17:18:29.494Z,81.50
2019-03-18T17:20:58.640Z,81.90
2019-03-18T17:23:27.725Z,82.10
2019-03-18T17:25:56.844Z,82.50
2019-03-18T17:28:25.909Z,82.60
2019-03-18T17:30:54.955Z,82.90
2019-03-18T17:33:24.048Z,83.40
2019-03-18T17:35:53.153Z,83.50
2019-03-18T17:38:22.199Z,83.50
2019-03-18T17:40:51.277Z,84.00
2019-03-18T17:43:20.360Z,84.50
2019-03-18T17:45:49.692Z,85.10
2019-03-18T17:48:18.782Z,85.40
2019-03-18T17:50:47.928Z,85.40
2019-03-18T17:53:17.078Z,85.50
2019-03-18T17:55:46.115Z,85.50
2019-03-18T17:58:15.277Z,85.70
2019-03-18T18:00:47.333Z,85.70
2019-03-18T18:03:16.390Z,86.00
2019-03-18T18:05:45.616Z,86.00
2019-03-18T18:08:14.702Z,86.00
2019-03-18T18:10:44.011Z,86.30
2019-03-18T18:13:13.142Z,86.30
2019-03-18T18:15:42.393Z,86.80
2019-03-18T18:18:11.561Z,87.20
2019-03-18T18:20:40.695Z,87.20
2019-03-18T18:23:14.576Z,87.30
2019-03-18T18:25:40.747Z,87.60
2019-03-18T18:28:09.969Z,87.70
2019-03-18T18:30:39.067Z,87.70
2019-03-18T18:33:08.351Z,88.10
2019-03-18T18:35:37.625Z,88.70
2019-03-18T18:38:06.817Z,87.80
2019-03-18T18:40:35.989Z,87.70
2019-03-18T18:43:05.281Z,87.90
2019-03-18T18:48:20.190Z,87.70
2019-03-18T18:50:50.808Z,87.90
2019-03-18T18:53:26.195Z,87.80
2019-03-18T18:55:51.601Z,87.60
2019-03-18T18:58:20.881Z,87.50
2019-03-18T19:00:50.066Z,87.20
2019-03-18T19:03:38.387Z,86.90
2019-03-18T19:06:07.559Z,86.60
2019-03-18T19:08:36.670Z,86.30
2019-03-18T19:11:05.893Z,86.20
2019-03-18T19:13:35.519Z,86.00
2019-03-18T19:16:05.160Z,85.90
2019-03-18T19:18:38.005Z,85.70
2019-03-18T19:21:05.274Z,85.40
2019-03-18T19:26:37.073Z,84.80
2019-03-18T19:29:06.226Z,84.80
2019-03-18T19:31:35.219Z,84.80
2019-03-18T19:34:04.532Z,84.60
2019-03-18T19:36:33.610Z,84.60
2019-03-18T19:39:03.088Z,84.60
2019-03-18T19:41:32.228Z,84.40
2019-03-18T19:44:01.289Z,84.70
2019-03-18T19:46:30.432Z,84.80
2019-03-18T19:48:59.520Z,84.80
2019-03-18T19:51:28.607Z,85.20
2019-03-18T19:53:57.692Z,85.30
2019-03-18T19:56:26.740Z,85.20
2019-03-18T19:58:56.065Z,85.60
2019-03-18T20:01:25.240Z,85.70
2019-03-18T20:03:54.685Z,85.90
2019-03-18T20:06:23.816Z,86.00
2019-03-18T20:08:53.047Z,85.80
2019-03-18T20:11:22.179Z,86.00
2019-03-18T20:13:52.727Z,86.10
2019-03-18T20:16:24.421Z,86.00
2019-03-18T20:18:55.098Z,86.10
2019-03-18T20:21:24.165Z,86.30
2019-03-18T20:24:00.851Z,86.10
2019-03-18T20:26:23.951Z,86.00
2019-03-18T20:28:53.040Z,86.30
2019-03-18T20:31:25.934Z,86.30
2019-03-18T20:33:53.078Z,86.60
2019-03-18T20:36:22.199Z,86.60
2019-03-18T20:38:51.243Z,86.50
2019-03-18T20:41:20.391Z,86.50
2019-03-18T20:43:49.611Z,86.60
2019-03-18T20:46:18.827Z,86.70
2019-03-18T20:48:47.939Z,86.60
2019-03-18T20:51:17.861Z,86.70
2019-03-18T20:53:46.982Z,86.70
2019-03-18T20:56:16.711Z,86.50
2019-03-18T20:58:45.895Z,86.60
2019-03-18T21:01:14.979Z,86.70
2019-03-18T21:03:44.077Z,86.30
2019-03-18T21:06:13.245Z,86.20
2019-03-18T21:08:43.030Z,86.20
2019-03-18T21:11:12.189Z,86.20
2019-03-18T21:13:41.964Z,86.20
2019-03-18T21:16:11.895Z,86.00
2019-03-18T21:18:44.280Z,86.10
2019-03-18T21:21:13.384Z,86.10
2019-03-18T21:23:42.535Z,86.20
2019-03-18T21:26:12.496Z,86.00
2019-03-18T21:28:41.766Z,86.10
2019-03-18T21:31:11.010Z,86.20
2019-03-18T21:33:40.261Z,86.20
2019-03-18T21:36:09.411Z,86.10
2019-03-18T21:38:38.587Z,86.20
2019-03-18T21:41:07.841Z,86.10
2019-03-18T21:43:37.117Z,87.00
2019-03-18T21:46:06.720Z,86.20
2019-03-18T21:48:35.896Z,86.20
2019-03-18T21:51:05.197Z,86.30
2019-03-18T21:53:34.230Z,86.30
2019-03-18T21:56:03.361Z,86.60
2019-03-18T21:58:33.170Z,86.40
2019-03-18T22:01:02.923Z,86.30
2019-03-18T22:03:31.911Z,86.30
2019-03-18T22:06:01.047Z,86.30
2019-03-18T22:08:30.034Z,86.40
2019-03-18T22:10:59.101Z,86.50
2019-03-18T22:13:28.162Z,86.50
2019-03-18T22:15:57.310Z,86.60
2019-03-18T22:18:26.446Z,86.50
2019-03-18T22:20:56.483Z,86.60
2019-03-18T22:23:25.541Z,86.30
2019-03-18T22:25:54.708Z,86.80
2019-03-18T22:28:23.761Z,86.80
2019-03-18T22:30:52.944Z,87.00
2019-03-18T22:33:22.260Z,87.30
2019-03-18T22:35:51.343Z,87.50
2019-03-18T22:38:20.390Z,87.30
2019-03-18T22:40:49.537Z,87.00
2019-03-18T22:43:18.620Z,87.20
2019-03-18T22:45:47.622Z,87.20
2019-03-18T22:48:16.755Z,87.20
2019-03-18T22:50:45.887Z,87.10
2019-03-18T22:53:14.937Z,87.10
2019-03-18T22:55:44.044Z,87.30
2019-03-18T22:58:13.031Z,87.10
2019-03-18T23:00:49.895Z,87.20
2019-03-18T23:03:19.048Z,87.20
2019-03-18T23:05:48.130Z,86.90
2019-03-18T23:08:17.255Z,87.30
2019-03-18T23:10:46.397Z,87.20
2019-03-18T23:13:15.519Z,87.00
2019-03-18T23:15:44.570Z,87.30
2019-03-18T23:18:13.551Z,87.30
2019-03-18T23:20:42.573Z,87.40
2019-03-18T23:23:11.563Z,86.90
2019-03-18T23:25:40.686Z,87.60
2019-03-18T23:28:09.788Z,87.40
2019-03-18T23:30:38.843Z,87.60
2019-03-18T23:33:07.866Z,88.10
2019-03-18T23:35:36.931Z,88.00
2019-03-18T23:38:06.025Z,88.10
2019-03-18T23:40:35.192Z,88.10
2019-03-18T23:43:04.269Z,88.20
2019-03-18T23:45:33.711Z,88.60
2019-03-18T23:48:02.889Z,88.10
2019-03-18T23:50:31.977Z,88.50
2019-03-18T23:53:01.113Z,88.50
2019-03-18T23:55:30.310Z,88.80
2019-03-18T23:57:59.417Z,88.80
